Terminal Aerodrome Forecast
Issued by NWS

Home | Current Version | Previous Version | Text Only | Print | Product List | Glossary On
Versions: 1 2 3 4 5 6 7 8 9 10 11 12 13 14 15 16 17 18 19 20 21 22 23 24 25 26 27 28 29 30 31 32 33 34 35 36 37 38 39 40 41 42 43 44 45 46 47 48 49 50
000
FTUS41 KCTP 181903 AAA
TAFLNS
TAF AMD
KLNS 181903Z 1819/1918 20013G20KT P6SM VCTS FEW030 SCT035CB BKN060
      TEMPO 1819/1823 2SM -TSRA OVC020CB
     FM182300 22006KT 6SM BR VCSH BKN030
     FM190300 28005KT 5SM BR SCT035
     FM190700 30004KT 2SM BR SKC
     FM191200 30007KT P6SM SCT050=

USA.gov is the U.S. government's official web portal to all federal, state and local government web resources and services.